Big Bear Station Historical Data
Daily Summary for February 27, 2017 Units:  English    Metric   Both
« Previous Day
Next Day »
Daily Weekly Monthly Yearly Custom
  High: Low: Average:
Temperature: 35.6 °F 27.9 °F 32.2 °F
Dew Point: 34.0 °F 17.6 °F 29.6 °F
Humidity: 97 % 64 % 90 %
Wind Speed: 11.4 mph 0.0 mph 3.4 mph
Wind Gust: -999.0 mph - -
Wind:- - SSW
Pressure: 29.93 in 29.83 in -
Precipitation: 0.61 in    
Historical Graphs
 
 
Tabular Data for February 27, 2017
Time Temperature Dew Point Pressure Wind Wind Speed Wind Gust Humidity Rainfall Rate (Hourly)
00:10 27.9 °F 18.4 °F 29.90 in South 6.8 mph -999.0 mph 67 % 0 in
00:25 28.2 °F 18.6 °F 29.91 in WSW 1.7 mph -999.0 mph 67 % 0 in
00:40 28.2 °F 17.6 °F 29.92 in West 3.7 mph -999.0 mph 64 % 0 in
00:56 28.2 °F 19.0 °F 29.93 in WSW 2.2 mph -999.0 mph 68 % 0 in
01:11 28.2 °F 21.9 °F 29.93 in SW 2.7 mph -999.0 mph 77 % 0 in
01:27 29.1 °F 23.1 °F 29.93 in ENE 3.2 mph -999.0 mph 78 % 0 in
01:42 29.1 °F 22.8 °F 29.93 in South 2.2 mph -999.0 mph 77 % 0 in
01:58 28.9 °F 23.2 °F 29.92 in SW 3.7 mph -999.0 mph 79 % 0 in
02:13 29.1 °F 24.0 °F 29.92 in SW 4.7 mph -999.0 mph 81 % 0 in
02:28 29.8 °F 25.0 °F 29.91 in SSW 2.7 mph -999.0 mph 82 % 0 in
02:43 30.6 °F 25.8 °F 29.90 in SE 5.8 mph -999.0 mph 82 % 0 in
02:59 30.4 °F 24.4 °F 29.90 in SSW 4.2 mph -999.0 mph 78 % 0 in
03:14 30.2 °F 24.5 °F 29.90 in Calm   -999.0 mph 79 % 0 in
03:29 30.0 °F 23.7 °F 29.90 in SE 2.2 mph -999.0 mph 77 % 0 in
03:44 29.7 °F 22.7 °F 29.89 in ESE 1.7 mph -999.0 mph 75 % 0 in
04:00 28.8 °F 22.8 °F 29.90 in SSE 2.7 mph -999.0 mph 78 % 0 in
04:15 28.8 °F 25.7 °F 29.90 in Calm   -999.0 mph 88 % 0 in
04:31 29.5 °F 28.0 °F 29.89 in WNW 2.2 mph -999.0 mph 94 % 0 in
04:46 30.2 °F 28.9 °F 29.89 in NNW 1.7 mph -999.0 mph 95 % 0 in
05:01 31.5 °F 30.5 °F 29.88 in SSE 4.7 mph -999.0 mph 96 % 0 in
05:16 31.8 °F 30.8 °F 29.89 in NNE 1.1 mph -999.0 mph 96 % 0 in
05:32 32.0 °F 30.7 °F 29.89 in SSW 7.3 mph -999.0 mph 95 % 0 in
05:47 32.0 °F 31.0 °F 29.89 in South 3.2 mph -999.0 mph 96 % 0 in
06:02 32.2 °F 31.2 °F 29.89 in Calm   -999.0 mph 96 % 0 in
06:17 32.4 °F 31.4 °F 29.89 in SW 1.7 mph -999.0 mph 96 % 0 in
06:32 32.7 °F 31.7 °F 29.88 in NNE 1.7 mph -999.0 mph 96 % 0 in
06:48 32.9 °F 31.9 °F 29.88 in SE 5.8 mph -999.0 mph 96 % 0 in
07:03 32.9 °F 31.9 °F 29.89 in NW 4.2 mph -999.0 mph 96 % 0 in
07:19 33.3 °F 32.0 °F 29.89 in South 4.7 mph -999.0 mph 95 % 0 in
07:34 33.3 °F 32.0 °F 29.90 in NW 2.7 mph -999.0 mph 95 % 0 in
07:49 33.3 °F 32.3 °F 29.90 in SSE 8.3 mph -999.0 mph 96 % 0 in
08:05 33.4 °F 32.1 °F 29.90 in SSW 4.7 mph -999.0 mph 95 % 0 in
08:20 32.9 °F 30.6 °F 29.91 in SSW 5.3 mph -999.0 mph 91 % 0 in
08:36 32.7 °F 30.1 °F 29.91 in SE 11.4 mph -999.0 mph 90 % 0 in
08:51 32.9 °F 30.3 °F 29.91 in SSE 2.7 mph -999.0 mph 90 % 0 in
09:06 32.9 °F 30.6 °F 29.91 in SSW 5.3 mph -999.0 mph 91 % 0 in
09:21 33.3 °F 30.7 °F 29.92 in SE 4.2 mph -999.0 mph 90 % 0 in
09:37 33.4 °F 31.3 °F 29.91 in NNW 2.7 mph -999.0 mph 92 % 0 in
09:52 33.4 °F 31.1 °F 29.92 in NNW 2.7 mph -999.0 mph 91 % 0 in
10:07 33.4 °F 31.3 °F 29.91 in South 2.7 mph -999.0 mph 92 % 0 in
10:22 34.5 °F 31.9 °F 29.91 in SSE 4.2 mph -999.0 mph 90 % 0 in
10:38 34.9 °F 32.0 °F 29.91 in SSW 4.7 mph -999.0 mph 89 % 0 in
10:53 35.2 °F 31.7 °F 29.91 in ESE 3.7 mph -999.0 mph 87 % 0 in
11:08 34.5 °F 31.9 °F 29.90 in South 6.3 mph -999.0 mph 90 % 0 in
11:24 34.9 °F 32.0 °F 29.91 in NNW 4.2 mph -999.0 mph 89 % 0 in
11:39 34.2 °F 31.6 °F 29.90 in South 3.7 mph -999.0 mph 90 % 0 in
11:54 34.3 °F 32.2 °F 29.90 in SW 2.2 mph -999.0 mph 92 % 0 in
12:10 34.7 °F 31.8 °F 29.89 in East 2.7 mph -999.0 mph 89 % 0 in
12:25 35.4 °F 32.5 °F 29.88 in South 4.2 mph -999.0 mph 89 % 0 in
12:41 35.1 °F 32.5 °F 29.88 in NE 5.8 mph -999.0 mph 90 % 0 in
12:56 34.9 °F 32.5 °F 29.87 in SE 2.2 mph -999.0 mph 91 % 0 in
13:26 35.1 °F 32.7 °F 29.87 in SW 3.2 mph -999.0 mph 91 % 0 in
13:42 34.7 °F 33.2 °F 29.86 in SW 5.3 mph -999.0 mph 94 % 0 in
13:57 35.4 °F 33.8 °F 29.86 in South 4.7 mph -999.0 mph 94 % 0 in
14:12 35.6 °F 34.0 °F 29.85 in SSW 7.3 mph -999.0 mph 94 % 0 in
14:27 35.1 °F 33.5 °F 29.85 in SE 2.7 mph -999.0 mph 94 % 0 in
14:42 34.3 °F 32.5 °F 29.85 in SSE 2.7 mph -999.0 mph 93 % 0 in
14:58 34.3 °F 32.8 °F 29.85 in SW 2.2 mph -999.0 mph 94 % 0 in
15:13 34.7 °F 33.4 °F 29.85 in East 1.1 mph -999.0 mph 95 % 0 in
15:29 34.7 °F 33.2 °F 29.85 in South 1.1 mph -999.0 mph 94 % 0 in
15:44 33.8 °F 32.3 °F 29.84 in ESE 1.1 mph -999.0 mph 94 % 0 in
16:01 33.6 °F 32.1 °F 29.83 in Calm   -999.0 mph 94 % 0 in
16:18 33.6 °F 32.3 °F 29.85 in WSW 3.7 mph -999.0 mph 95 % 0 in
16:34 33.1 °F 32.1 °F 29.85 in SSW 3.7 mph -999.0 mph 96 % 0 in
16:49 32.9 °F 31.9 °F 29.85 in West 1.7 mph -999.0 mph 96 % 0 in
17:04 32.7 °F 31.7 °F 29.85 in SE 1.7 mph -999.0 mph 96 % 0 in
17:19 32.9 °F 32.1 °F 29.84 in NNW 1.7 mph -999.0 mph 97 % 0 in
17:35 33.1 °F 32.3 °F 29.86 in NNW 1.7 mph -999.0 mph 97 % 0 in
18:05 33.1 °F 31.8 °F 29.85 in ESE 3.7 mph -999.0 mph 95 % 0 in
18:20 33.1 °F 32.1 °F 29.85 in NNW 4.2 mph -999.0 mph 96 % 0 in
18:38 33.1 °F 32.1 °F 29.85 in WNW 5.3 mph -999.0 mph 96 % 0 in
18:54 33.1 °F 31.6 °F 29.85 in South 5.3 mph -999.0 mph 94 % 0 in
19:11 32.7 °F 30.9 °F 29.85 in WNW 1.7 mph -999.0 mph 93 % 0 in
19:26 32.4 °F 31.1 °F 29.85 in NW 4.2 mph -999.0 mph 95 % 0 in
19:41 32.2 °F 31.2 °F 29.85 in ESE 3.2 mph -999.0 mph 96 % 0 in
19:57 32.0 °F 30.5 °F 29.85 in SSW 2.2 mph -999.0 mph 94 % 0 in
20:12 31.8 °F 30.3 °F 29.85 in SW 2.2 mph -999.0 mph 94 % 0 in
20:27 31.8 °F 30.3 °F 29.85 in NW 2.2 mph -999.0 mph 94 % 0 in
20:42 31.5 °F 29.4 °F 29.86 in WSW 3.7 mph -999.0 mph 92 % 0 in
20:58 31.3 °F 29.5 °F 29.86 in NNW 5.3 mph -999.0 mph 93 % 0 in
21:13 31.3 °F 29.5 °F 29.86 in SSE 6.3 mph -999.0 mph 93 % 0 in
21:30 31.3 °F 29.5 °F 29.86 in SE 2.7 mph -999.0 mph 93 % 0 in
21:45 31.5 °F 29.7 °F 29.86 in SW 1.1 mph -999.0 mph 93 % 0 in
22:01 31.3 °F 29.2 °F 29.86 in NNE 3.7 mph -999.0 mph 92 % 0 in
22:17 31.1 °F 29.0 °F 29.86 in South 2.2 mph -999.0 mph 92 % 0 in
22:32 30.9 °F 28.3 °F 29.86 in South 1.7 mph -999.0 mph 90 % 0 in
22:49 30.2 °F 27.6 °F 29.86 in South 1.1 mph -999.0 mph 90 % 0 in
23:05 30.0 °F 28.0 °F 29.85 in NNE 7.3 mph -999.0 mph 92 % 0 in
23:20 30.2 °F 27.9 °F 29.85 in SSE 3.7 mph -999.0 mph 91 % 0 in
23:37 30.2 °F 27.9 °F 29.85 in NNW 2.7 mph -999.0 mph 91 % 0 in
23:53 30.2 °F 28.4 °F 29.84 in SSW 3.2 mph -999.0 mph 93 % 0 in
Big Bear CA Weather
Compliments of Weather Underground - 1.5 mb